Station: Longerenong  

  Atmospheric Gas Attenuation - ITU Rec 676-11   ----------------- dB/100km -----------------
Date Time Temp RH % AH g/m3 Dew Point Wind Direction Speed kph Gust kph Barometer mB Rainfall Since 9am 24GHz 47GHz 76GHz 122GHz 134GHz 241GHz
08/05 12:40 15.1 74 9.55 10.5 26 30 1013.1 0 21.6 27.1 43.0 112.9 109.3 376.8
08/05 12:30 15.3 71 9.27 10.1 26 35 1013.1 0 20.9 26.5 41.7 109.6 105.3 362.8
08/05 12:20 15.6 72 9.57 10.7 24 30 1013.1 0 21.6 26.9 42.8 112.4 108.9 375.3
08/05 12:10 14.9 75 9.56 10.5 26 30 1013.1 0 21.6 27.1 43.1 113.3 109.7 378.2
08/05 12:00 14.4 76 9.39 10.2 24 35 1013.1 0 21.2 27.0 42.7 112.2 108.1 372.6
08/05 11:50 14.6 75 9.39 10.2 22 28 1013.1 0 21.2 26.9 42.6 111.9 107.8 371.7
08/05 11:40 14.7 75 9.44 10.3 32 35 1013.1 0 21.3 27.0 42.7 112.3 108.4 373.5
08/05 11:30 14.7 76 9.57 10.5 24 33 1013.1 0 21.6 27.2 43.3 113.7 110.1 379.7
08/05 11:20 14.6 75 9.39 10.2 30 35 1013.1 0 21.2 26.9 42.6 111.9 107.8 371.7
08/05 11:10 14.4 76 9.39 10.2 24 30 1013.1 0 21.2 27.0 42.7 112.2 108.1 372.6
08/05 11:00 14.3 78 9.58 10.5 26 35 1013.1 0 21.7 27.3 43.5 114.4 110.8 382.1
08/05 10:50 14 80 9.65 10.6 26 32 1013.1 0 21.8 27.6 44.0 115.6 112.2 386.9
08/05 10:40 13.9 79 9.47 10.3 19 22 1013.1 0 21.4 27.3 43.3 113.8 109.9 378.8
08/05 10:30 13.6 81 9.53 10.4 26 32 1013.1 0 21.6 27.5 43.7 114.9 111.2 383.1
08/05 10:20 13.5 81 9.47 10.3 24 30 1013.1 0 21.5 27.4 43.5 114.3 110.5 380.8
08/05 10:10 13.5 80 9.36 10.1 22 28 1013.1 0 21.2 27.2 43.0 113.1 109.0 375.5
08/05 10:00 13.4 81 9.42 10.2 22 32 1013.1 0 21.4 27.4 43.4 113.9 110.0 378.9
08/05 09:50 13.1 82 9.36 10.1 20 32 1013.1 0 21.3 27.4 43.3 113.7 109.6 377.4
08/05 09:40 12.9 82 9.24 10 20 24 1013.1 0 21.0 27.2 42.9 112.7 108.2 372.7
08/05 09:30 12.7 85 9.46 10.2 17 28 1013.1 0 21.5 27.6 43.9 115.4 111.5 384.2
08/05 09:20 12.5 85 9.35 10 11 13 1013.1 0 21.3 27.5 43.6 114.5 110.3 379.9
08/05 09:10 12.4 85 9.29 9.9 9 11 1013.1 0 21.1 27.5 43.4 113.9 109.6 377.5
08/05 09:00 12.3 85 9.23 9.9 15 20 1013.1 0 21.0 27.4 43.2 113.4 108.9 375.1
08/05 08:50 12.2 86 9.28 9.9 9 11 1013.1 0 21.1 27.5 43.4 114.1 109.7 378.0
08/05 08:40 12.1 86 9.22 9.8 11 13 1013.1 0 21.0 27.4 43.2 113.6 109.1 375.5
08/05 08:30 12 87 9.27 9.9 13 20 1013.1 0 21.1 27.5 43.5 114.3 109.9 378.5
08/05 08:20 11.9 89 9.43 10.1 19 22 1013.1 0 21.5 27.8 44.2 116.3 112.3 386.7
08/05 08:10 11.7 92 9.62 10.4 13 15 1013.1 0 21.9 28.2 45.2 118.7 115.2 397.1
08/05 08:00 11.6 93 9.67 10.5 9 13 1013.1 0 22.0 28.4 45.4 119.5 116.1 400.1
08/05 07:50 11.5 94 9.71 10.5 9 11 1013.1 0 22.1 28.5 45.7 120.1 116.8 402.6
08/05 07:40 11.4 94 9.65 10.4 17 20 1013.1 0 22.0 28.4 45.5 119.5 116.1 400.1
08/05 07:30 11.6 94 9.77 10.7 20 32 1013.1 0 22.2 28.5 45.9 120.6 117.5 405.0
08/05 07:20 11.7 93 9.73 10.6 17 20 1013.1 0 22.1 28.4 45.6 120.0 116.8 402.5
08/05 07:10 11.7 93 9.73 10.6 24 32 1013.1 0 22.1 28.4 45.6 120.0 116.8 402.5
08/05 07:00 11.6 95 9.88 10.8 17 30 1013.1 0 22.5 28.7 46.3 121.9 119.1 410.5
08/05 06:50 11.5 95 9.81 10.7 15 19 1013.1 0 22.3 28.6 46.1 121.2 118.2 407.5
08/05 06:40 11.6 94 9.77 10.6 22 26 1013.1 0 22.2 28.5 45.9 120.6 117.5 405.0
08/05 06:30 11.6 94 9.77 10.7 15 22 1013.1 0 22.2 28.5 45.9 120.6 117.5 405.0
08/05 06:20 11.5 95 9.81 10.7 17 20 1013.1 0 22.3 28.6 46.1 121.2 118.2 407.5
08/05 06:10 11.5 95 9.81 10.7 11 15 1013.1 0 22.3 28.6 46.1 121.2 118.2 407.5
08/05 06:00 11.4 95 9.75 10.6 11 19 1013.1 0 22.2 28.6 45.9 120.7 117.5 405.1
08/05 05:50 11.4 95 9.75 10.6 13 19 1013.1 0 22.2 28.6 45.9 120.7 117.5 405.1
08/05 05:40 11.4 95 9.75 10.6 15 22 1013.1 0 22.2 28.6 45.9 120.7 117.5 405.1
08/05 05:30 11.4 95 9.75 10.6 15 22 1013.1 0 22.2 28.6 45.9 120.7 117.5 405.1
08/05 05:20 11.4 94 9.65 10.4 20 24 1013.1 0 22.0 28.4 45.5 119.5 116.1 400.1
08/05 05:10 11.5 93 9.61 10.4 19 20 1013.1 0 21.9 28.3 45.2 118.9 115.4 397.6
08/05 05:00 11.6 92 9.56 10.3 22 30 1013.1 0 21.8 28.2 45.0 118.2 114.5 394.6
08/05 04:50 11.8 90 9.47 10.2 17 20 1013.1 0 21.6 27.9 44.5 116.9 113.0 389.2
08/05 04:40 11.6 90 9.36 10.1 20 24 1013.1 0 21.3 27.8 44.1 115.9 111.7 384.8
08/05 04:30 11.8 89 9.37 10 22 35 1013.1 0 21.3 27.8 44.0 115.7 111.6 384.3
08/05 04:20 11.8 89 9.37 10 26 35 1013.1 0 21.3 27.8 44.0 115.7 111.6 384.3
08/05 04:10 11.8 87 9.16 9.8 26 33 1013.1 0 20.9 27.4 43.1 113.4 108.6 374.1
08/05 04:00 11.8 88 9.26 9.9 24 37 1013.1 0 21.1 27.6 43.6 114.5 110.0 378.9
08/05 03:50 11.7 87 9.1 9.7 20 24 1013.1 0 20.8 27.3 42.9 112.8 108.0 371.7
08/05 03:40 11.7 87 9.1 9.6 26 32 1013.1 0 20.8 27.3 42.9 112.8 108.0 371.7
08/05 03:30 11.7 87 9.1 9.6 22 32 1013.1 0 20.8 27.3 42.9 112.8 108.0 371.7
08/05 03:20 11.7 87 9.1 9.6 22 26 1013.1 0 20.8 27.3 42.9 112.8 108.0 371.7
08/05 03:10 11.7 87 9.1 9.6 17 22 1013.1 0 20.8 27.3 42.9 112.8 108.0 371.7
08/05 03:00 11.7 87 9.1 9.6 24 37 1013.1 0 20.8 27.3 42.9 112.8 108.0 371.7
08/05 02:50 11.6 87 9.04 9.5 22 26 1013.1 0 20.6 27.3 42.7 112.3 107.3 369.2
08/05 02:40 11.5 87 8.99 9.4 22 30 1013.1 0 20.5 27.2 42.6 111.9 106.7 367.3
08/05 02:30 11.4 87 8.93 9.3 20 28 1013.1 0 20.4 27.2 42.4 111.4 106.0 364.9
08/05 02:20 11.3 87 8.88 9.2 22 26 1013.1 0 20.3 27.1 42.2 110.9 105.5 362.9
08/05 02:10 11.2 87 8.82 9.2 22 28 1013.1 0 20.2 27.0 42.0 110.4 104.8 360.5
08/05 02:00 10.9 88 8.75 9 20 28 1013.1 0 20.1 27.0 41.9 110.1 104.2 358.5
08/05 01:50 10.9 87 8.66 8.8 19 20 1013.1 0 19.9 26.9 41.5 109.0 103.0 354.1
08/05 01:40 11 86 8.61 8.7 24 28 1013.1 0 19.7 26.7 41.3 108.3 102.2 351.3
08/05 01:30 10.9 86 8.56 8.7 24 32 1013.1 0 19.6 26.7 41.1 107.9 101.6 349.3
08/05 01:20 10.9 86 8.56 8.6 22 26 1013.1 0 19.6 26.7 41.1 107.9 101.6 349.3
08/05 01:10 10.9 84 8.36 8.4 22 26 1013.1 0 19.2 26.3 40.3 105.7 98.9 339.7
08/05 01:00 10.8 85 8.4 8.4 24 33 1013.1 0 19.3 26.4 40.5 106.3 99.5 342.1
08/05 00:50 10.8 84 8.3 8.3 26 30 1013.1 0 19.1 26.3 40.1 105.2 98.2 337.3
08/05 00:40 11 84 8.41 8.4 26 35 1013.1 0 19.3 26.4 40.4 106.1 99.4 341.7
08/05 00:30 11 83 8.31 8.2 26 32 1013.1 0 19.1 26.2 40.0 105.0 98.1 336.9
08/05 00:20 11 83 8.31 8.2 26 32 1013.1 0 19.1 26.2 40.0 105.0 98.1 336.9
08/05 00:10 10.9 83 8.26 8.1 26 32 1013.1 0 19.0 26.2 39.9 104.6 97.5 335.0
08/05 00:00 10.9 82 8.16 8 20 28 1013.1 0 18.8 26.0 39.5 103.5 96.2 330.2
07/05 23:50 11 82 8.21 8 22 26 1013.1 0 18.9 26.1 39.6 103.9 96.7 332.2
07/05 23:40 10.9 83 8.26 8.1 22 26 1013.1 0 19.0 26.2 39.9 104.6 97.5 335.0
07/05 23:30 11.1 81 8.16 8 22 32 1013.1 0 18.8 26.0 39.4 103.2 95.9 329.4
07/05 23:20 10.9 80 7.96 7.7 20 22 1013.1 0 18.4 25.7 38.6 101.3 93.5 320.8
07/05 23:10 10.8 82 8.11 7.8 20 24 1013.1 0 18.7 26.0 39.3 103.1 95.6 328.3
07/05 23:00 10.8 82 8.11 7.9 19 26 1013.1 0 18.7 26.0 39.3 103.1 95.6 328.3
07/05 22:50 10.5 82 7.95 7.5 17 24 1013.1 0 18.4 25.8 38.8 101.7 93.8 322.0
07/05 22:40 10.4 82 7.9 7.4 19 20 1013.1 0 18.2 25.7 38.6 101.3 93.3 320.0
07/05 22:30 10.4 82 7.9 7.5 19 24 1013.1 0 18.2 25.7 38.6 101.3 93.3 320.0
07/05 22:20 10.3 80 7.66 7.1 17 20 1013.1 0 17.7 25.4 37.7 98.8 90.1 309.1
07/05 22:10 10.6 80 7.81 7.3 17 19 1013.1 0 18.0 25.5 38.2 100.1 91.8 315.0
07/05 22:00 10.8 80 7.91 7.5 19 24 1013.1 0 18.3 25.6 38.5 100.9 92.9 318.9
07/05 21:50 10.9 80 7.96 7.6 19 20 1013.1 0 18.4 25.7 38.6 101.3 93.5 320.8
07/05 21:40 10.9 80 7.96 7.6 17 22 1013.1 0 18.4 25.7 38.6 101.3 93.5 320.8
07/05 21:30 10.9 80 7.96 7.6 22 30 1013.1 0 18.4 25.7 38.6 101.3 93.5 320.8
07/05 21:20 10.9 79 7.86 7.4 24 28 1013.1 0 18.1 25.5 38.2 100.2 92.1 316.1
07/05 21:10 10.9 79 7.86 7.4 22 26 1013.1 0 18.1 25.5 38.2 100.2 92.1 316.1
07/05 21:00 11 78 7.81 7.3 30 44 1013.1 0 18.0 25.4 38.0 99.6 91.3 313.4
07/05 20:50 11 76 7.61 6.9 24 30 1013.1 0 17.6 25.1 37.2 97.4 88.7 304.1
07/05 20:40 11 75 7.51 6.7 22 32 1013.1 0 17.4 24.9 36.8 96.3 87.4 299.5
07/05 20:30 11 75 7.51 6.7 22 32 1013.1 0 17.4 24.9 36.8 96.3 87.4 299.5
07/05 20:20 11 74 7.41 6.5 20 24 1013.1 0 17.2 24.8 36.4 95.3 86.0 294.8
07/05 20:10 10.9 72 7.16 6 26 32 1013.1 0 16.6 24.4 35.4 92.7 82.9 283.8

Last Refresh: 08-May-2026 12:09:37

Bureau of Meteorology